createdAt,value
2023-03-26T00:00:02.354Z,57.00
2023-03-26T00:02:28.761Z,58.24
2023-03-26T00:04:55.204Z,57.89
2023-03-26T00:07:21.589Z,56.75
2023-03-26T00:09:47.973Z,57.07
2023-03-26T00:12:14.344Z,56.38
2023-03-26T00:14:40.687Z,55.53
2023-03-26T00:17:07.016Z,56.14
2023-03-26T00:19:33.393Z,56.87
2023-03-26T00:21:59.746Z,55.66
2023-03-26T00:24:26.148Z,56.30
2023-03-26T00:26:52.517Z,56.21
2023-03-26T00:29:18.902Z,56.23
2023-03-26T00:31:45.263Z,55.44
2023-03-26T00:34:11.638Z,56.44
2023-03-26T00:36:37.994Z,57.95
2023-03-26T00:39:04.332Z,56.01
2023-03-26T00:41:30.683Z,57.24
2023-03-26T00:43:57.068Z,57.58
2023-03-26T00:46:23.506Z,57.24
2023-03-26T00:48:49.890Z,57.32
2023-03-26T00:51:16.264Z,57.84
2023-03-26T00:53:42.640Z,57.16
2023-03-26T00:56:09.040Z,56.38
2023-03-26T00:58:35.439Z,56.18
2023-03-26T01:01:01.804Z,56.02
2023-03-26T01:03:28.414Z,56.88
2023-03-26T01:05:55.099Z,56.52
2023-03-26T01:08:21.657Z,56.96
2023-03-26T01:10:48.049Z,56.71
2023-03-26T01:13:14.424Z,56.89
2023-03-26T01:15:40.817Z,55.90
2023-03-26T01:18:07.612Z,55.96
2023-03-26T01:20:34.003Z,56.08
2023-03-26T01:23:00.426Z,55.83
2023-03-26T01:25:26.803Z,56.03
2023-03-26T01:27:53.202Z,55.98
2023-03-26T01:30:19.586Z,56.62
2023-03-26T01:32:46.058Z,56.86
2023-03-26T01:35:12.569Z,58.83
2023-03-26T01:37:38.919Z,58.47
2023-03-26T01:40:05.304Z,58.20
2023-03-26T01:42:31.647Z,57.97
2023-03-26T01:44:58.026Z,58.01
2023-03-26T01:47:24.384Z,58.16
2023-03-26T01:49:50.725Z,59.25
2023-03-26T01:52:17.132Z,58.38
2023-03-26T01:54:43.671Z,58.30
2023-03-26T01:57:10.123Z,58.20
2023-03-26T01:59:36.489Z,58.63
2023-03-26T02:02:02.903Z,59.46
2023-03-26T02:04:29.372Z,59.10
2023-03-26T02:06:55.711Z,57.56
2023-03-26T02:09:22.043Z,57.06
2023-03-26T02:11:48.417Z,56.60
2023-03-26T02:14:14.829Z,56.41
2023-03-26T02:16:41.269Z,56.58
2023-03-26T02:19:07.694Z,56.48
2023-03-26T02:21:34.243Z,57.09
2023-03-26T02:24:00.738Z,57.29
2023-03-26T02:26:27.102Z,56.52
2023-03-26T02:28:53.438Z,56.71
2023-03-26T02:31:19.877Z,56.74
2023-03-26T02:33:46.285Z,56.75
2023-03-26T02:36:12.766Z,56.24
2023-03-26T02:38:39.208Z,56.36
2023-03-26T02:41:05.555Z,55.93
2023-03-26T02:43:31.897Z,55.55
2023-03-26T02:45:58.495Z,55.98
2023-03-26T02:48:24.972Z,55.93
2023-03-26T02:50:51.322Z,56.06
2023-03-26T02:53:17.701Z,55.25
2023-03-26T02:55:44.058Z,55.85
2023-03-26T02:58:10.399Z,55.95
2023-03-26T03:00:36.738Z,55.71
2023-03-26T03:03:03.224Z,55.42
2023-03-26T03:05:29.668Z,56.53
2023-03-26T03:07:56.062Z,55.67
2023-03-26T03:10:22.469Z,57.00
2023-03-26T03:12:48.866Z,57.15
2023-03-26T03:15:15.253Z,56.94
2023-03-26T03:17:41.645Z,57.52
2023-03-26T03:20:08.093Z,57.17
2023-03-26T03:22:34.489Z,57.33
2023-03-26T03:25:00.840Z,57.37
2023-03-26T03:27:27.180Z,57.70
2023-03-26T03:29:53.552Z,57.74
2023-03-26T03:32:19.917Z,57.46
2023-03-26T03:34:46.263Z,58.10
2023-03-26T03:37:12.627Z,58.35
2023-03-26T03:39:38.979Z,58.29
2023-03-26T03:42:05.312Z,58.50
2023-03-26T03:44:31.716Z,58.20
2023-03-26T03:46:58.131Z,58.11
2023-03-26T03:49:24.475Z,57.91
2023-03-26T03:51:50.875Z,58.18
2023-03-26T03:54:17.249Z,58.00
2023-03-26T03:56:43.655Z,58.45
2023-03-26T03:59:10.013Z,58.43
2023-03-26T04:01:36.350Z,58.95
2023-03-26T04:04:02.823Z,58.64
2023-03-26T04:06:29.263Z,57.97
2023-03-26T04:08:55.640Z,58.52
2023-03-26T04:11:22.041Z,58.36
2023-03-26T04:13:48.377Z,58.46
2023-03-26T04:16:14.824Z,58.86
2023-03-26T04:18:41.252Z,59.13
2023-03-26T04:21:07.642Z,58.81
2023-03-26T04:23:33.990Z,58.76
2023-03-26T04:26:00.320Z,58.48
2023-03-26T04:28:26.650Z,58.63
2023-03-26T04:30:52.977Z,60.05
2023-03-26T04:33:19.368Z,62.43
2023-03-26T04:35:45.797Z,63.98
2023-03-26T04:38:12.188Z,63.79
2023-03-26T04:40:38.587Z,63.54
2023-03-26T04:43:04.928Z,63.37
2023-03-26T04:45:31.317Z,62.75
2023-03-26T04:47:57.723Z,63.20
2023-03-26T04:50:24.155Z,63.09
2023-03-26T04:52:50.541Z,62.46
2023-03-26T04:55:16.930Z,62.67
2023-03-26T04:57:43.339Z,63.49
2023-03-26T05:00:09.722Z,63.08
2023-03-26T05:02:36.122Z,63.38
2023-03-26T05:05:02.537Z,63.91
2023-03-26T05:07:28.889Z,64.42
2023-03-26T05:09:55.220Z,65.35
2023-03-26T05:12:21.605Z,68.60
2023-03-26T05:14:47.996Z,70.53
2023-03-26T05:17:14.394Z,70.84
2023-03-26T05:19:40.748Z,72.59
2023-03-26T05:22:07.110Z,72.93
2023-03-26T05:24:33.479Z,74.55
2023-03-26T05:26:59.844Z,72.22
2023-03-26T05:29:26.219Z,71.02
2023-03-26T05:31:52.613Z,71.69
2023-03-26T05:34:18.968Z,73.14
2023-03-26T05:36:45.300Z,70.78
2023-03-26T05:39:11.647Z,71.46
2023-03-26T05:41:38.047Z,70.65
2023-03-26T05:44:04.399Z,70.36
2023-03-26T05:46:30.824Z,70.57
2023-03-26T05:48:57.236Z,68.91
2023-03-26T05:51:23.593Z,70.99
2023-03-26T05:53:49.933Z,69.50
2023-03-26T05:56:16.310Z,66.75
2023-03-26T05:58:42.650Z,68.19
2023-03-26T06:01:08.983Z,71.26
2023-03-26T06:03:35.417Z,71.93
2023-03-26T06:06:01.895Z,72.82
2023-03-26T06:08:28.298Z,73.39
2023-03-26T06:10:54.879Z,74.76
2023-03-26T06:13:21.405Z,75.73
2023-03-26T06:15:47.868Z,75.76
2023-03-26T06:18:14.308Z,75.74
2023-03-26T06:20:40.669Z,75.62
2023-03-26T06:23:07.010Z,76.52
2023-03-26T06:25:33.351Z,77.22
2023-03-26T06:27:59.712Z,75.59
2023-03-26T06:30:26.089Z,76.37
2023-03-26T06:32:52.537Z,76.17
2023-03-26T06:35:18.945Z,76.31
2023-03-26T06:37:45.350Z,76.29
2023-03-26T06:40:12.384Z,75.42
2023-03-26T06:43:08.900Z,74.70
2023-03-26T06:45:25.776Z,76.03
2023-03-26T06:47:52.293Z,74.90
2023-03-26T06:50:18.749Z,74.07
2023-03-26T06:52:45.201Z,75.24
2023-03-26T06:55:11.548Z,73.40
2023-03-26T06:57:37.901Z,74.67
2023-03-26T07:00:04.277Z,73.69
2023-03-26T07:02:30.666Z,73.73
2023-03-26T07:04:57.068Z,72.84
2023-03-26T07:07:23.461Z,72.02
2023-03-26T07:09:49.808Z,71.90
2023-03-26T07:12:16.142Z,73.23
2023-03-26T07:14:42.470Z,72.14
2023-03-26T07:17:08.849Z,72.24
2023-03-26T07:19:35.196Z,72.83
2023-03-26T07:22:01.553Z,73.32
2023-03-26T07:24:27.940Z,72.68
2023-03-26T07:26:54.284Z,72.08
2023-03-26T07:29:20.661Z,72.26
2023-03-26T07:31:47.037Z,72.17
2023-03-26T07:34:13.437Z,72.07
2023-03-26T07:36:39.838Z,74.42
2023-03-26T07:39:06.191Z,73.59
2023-03-26T07:41:32.539Z,72.87
2023-03-26T07:43:58.910Z,72.14
2023-03-26T07:46:25.293Z,72.71
2023-03-26T07:48:51.685Z,72.83
2023-03-26T07:51:18.124Z,72.58
2023-03-26T07:53:44.505Z,72.42
2023-03-26T07:56:10.903Z,72.84
2023-03-26T07:58:37.252Z,72.08
2023-03-26T08:01:03.600Z,71.53
2023-03-26T08:03:30.024Z,72.14
2023-03-26T08:05:56.486Z,71.62
2023-03-26T08:08:23.652Z,70.87
2023-03-26T08:10:50.907Z,70.76
2023-03-26T08:13:17.297Z,72.16
2023-03-26T08:15:43.715Z,71.44
2023-03-26T08:18:10.105Z,72.76
2023-03-26T08:20:36.536Z,71.96
2023-03-26T08:23:02.898Z,71.59
2023-03-26T08:25:29.300Z,71.53
2023-03-26T08:27:55.687Z,71.31
2023-03-26T08:30:22.034Z,71.08
2023-03-26T08:32:48.465Z,70.62
2023-03-26T08:35:14.844Z,71.55
2023-03-26T08:37:41.221Z,69.87
2023-03-26T08:40:07.597Z,71.08
2023-03-26T08:42:33.981Z,70.17
2023-03-26T08:45:00.365Z,71.11
2023-03-26T08:47:26.722Z,70.80
2023-03-26T08:49:53.115Z,69.87
2023-03-26T08:52:19.511Z,69.91
2023-03-26T08:54:45.911Z,70.39
2023-03-26T08:57:12.372Z,70.65
2023-03-26T08:59:38.905Z,71.40
2023-03-26T09:02:05.352Z,70.98
2023-03-26T09:04:31.782Z,71.12
2023-03-26T09:06:58.181Z,70.52
2023-03-26T09:09:24.574Z,70.76
2023-03-26T09:11:50.952Z,70.28
2023-03-26T09:14:17.358Z,70.08
2023-03-26T09:16:43.739Z,71.10
2023-03-26T09:19:10.206Z,69.61
2023-03-26T09:21:36.604Z,70.64
2023-03-26T09:24:03.010Z,69.46
2023-03-26T09:26:29.368Z,69.21
2023-03-26T09:28:55.755Z,70.70
2023-03-26T09:31:22.163Z,72.96
2023-03-26T09:33:48.542Z,74.20
2023-03-26T09:36:14.939Z,72.64
2023-03-26T09:38:41.297Z,73.90
2023-03-26T09:41:07.701Z,73.49
2023-03-26T09:43:34.095Z,74.95
2023-03-26T09:46:00.495Z,76.38
2023-03-26T09:48:26.880Z,75.45
2023-03-26T09:50:53.327Z,76.66
2023-03-26T09:53:19.835Z,80.60
2023-03-26T09:55:46.230Z,81.63
2023-03-26T09:58:17.369Z,81.55
2023-03-26T10:00:43.794Z,78.67
2023-03-26T10:03:10.226Z,80.86
2023-03-26T10:05:36.623Z,80.82
2023-03-26T10:08:03.005Z,80.71
2023-03-26T10:10:29.368Z,79.01
2023-03-26T10:13:04.839Z,80.19
2023-03-26T10:15:38.203Z,80.27
2023-03-26T10:18:04.601Z,80.52
2023-03-26T10:20:50.889Z,79.32
2023-03-26T10:23:17.274Z,78.40
2023-03-26T10:25:43.655Z,78.03
2023-03-26T10:28:10.046Z,77.54
2023-03-26T10:30:36.534Z,77.86
2023-03-26T10:33:02.954Z,77.77
2023-03-26T10:35:29.409Z,78.69
2023-03-26T10:37:55.799Z,78.72
2023-03-26T10:40:22.183Z,76.85
2023-03-26T10:42:48.576Z,78.40
2023-03-26T10:45:14.977Z,76.64
2023-03-26T10:47:41.407Z,74.20
2023-03-26T10:50:07.837Z,72.87
2023-03-26T10:52:34.193Z,72.22
2023-03-26T10:55:00.539Z,75.14
2023-03-26T10:57:26.913Z,72.31
2023-03-26T10:59:53.309Z,73.04
2023-03-26T11:02:19.716Z,71.64
2023-03-26T11:04:55.900Z,71.35
2023-03-26T11:07:22.363Z,72.25
2023-03-26T11:09:48.726Z,69.45
2023-03-26T11:12:26.868Z,72.11
2023-03-26T11:14:54.695Z,71.80
2023-03-26T11:17:40.541Z,73.52
2023-03-26T11:20:07.392Z,72.41
2023-03-26T11:22:33.804Z,71.46
2023-03-26T11:25:00.136Z,71.86
2023-03-26T11:27:26.603Z,69.67
2023-03-26T11:29:52.975Z,68.59
2023-03-26T11:32:19.362Z,67.16
2023-03-26T11:34:46.050Z,65.04
2023-03-26T11:37:12.394Z,69.19
2023-03-26T11:39:38.748Z,70.66
2023-03-26T11:42:05.082Z,70.50
2023-03-26T11:44:31.463Z,70.00
2023-03-26T11:46:57.881Z,69.26
2023-03-26T11:49:24.292Z,70.72
2023-03-26T11:51:50.677Z,68.89
2023-03-26T11:54:17.070Z,68.10
2023-03-26T11:57:05.710Z,65.75
2023-03-26T11:59:29.781Z,71.27
2023-03-26T12:01:56.203Z,69.59
2023-03-26T12:04:22.678Z,68.67
2023-03-26T12:06:49.035Z,66.99
2023-03-26T12:09:15.403Z,66.15
2023-03-26T12:11:41.787Z,74.87
2023-03-26T12:14:08.122Z,73.31
2023-03-26T12:16:34.525Z,76.17
2023-03-26T12:19:00.940Z,74.75
2023-03-26T12:21:27.328Z,74.76
2023-03-26T12:23:53.674Z,72.80
2023-03-26T12:26:20.009Z,74.37
2023-03-26T12:28:46.387Z,72.39
2023-03-26T12:31:12.788Z,76.16
2023-03-26T12:33:39.165Z,77.35
2023-03-26T12:36:05.625Z,79.31
2023-03-26T12:38:32.004Z,80.05
2023-03-26T12:40:58.398Z,78.68
2023-03-26T12:44:52.874Z,78.24
2023-03-26T12:47:55.325Z,78.01
2023-03-26T12:48:57.550Z,74.18
2023-03-26T12:51:23.978Z,74.68
2023-03-26T12:53:50.323Z,82.49
2023-03-26T12:56:16.660Z,84.30
2023-03-26T12:58:43.011Z,88.55
2023-03-26T13:01:09.382Z,91.74
2023-03-26T13:03:35.773Z,90.53
2023-03-26T13:06:02.145Z,94.07
2023-03-26T13:08:28.531Z,94.54
2023-03-26T13:10:55.138Z,93.53
2023-03-26T13:13:21.626Z,92.89
2023-03-26T13:15:48.003Z,92.07
2023-03-26T13:18:14.349Z,90.84
2023-03-26T13:20:40.726Z,91.62
2023-03-26T13:23:07.074Z,90.25
2023-03-26T13:25:33.412Z,90.87
2023-03-26T13:27:59.776Z,89.37
2023-03-26T13:30:26.151Z,88.08
2023-03-26T13:32:52.569Z,90.24
2023-03-26T13:35:19.010Z,89.32
2023-03-26T13:37:45.430Z,90.65
2023-03-26T13:40:11.785Z,88.48
2023-03-26T13:42:38.174Z,88.50
2023-03-26T13:45:06.075Z,87.82
2023-03-26T13:47:32.642Z,86.47
2023-03-26T13:49:59.060Z,87.77
2023-03-26T13:52:25.453Z,88.38
2023-03-26T13:54:51.840Z,88.13
2023-03-26T13:57:18.258Z,87.08
2023-03-26T13:59:44.636Z,85.88
2023-03-26T14:02:10.978Z,86.06
2023-03-26T14:04:37.310Z,86.55
2023-03-26T14:07:03.653Z,85.59
2023-03-26T14:09:29.974Z,86.45
2023-03-26T14:11:56.353Z,86.58
2023-03-26T14:14:22.692Z,87.01
2023-03-26T14:16:49.053Z,86.42
2023-03-26T14:19:15.440Z,86.36
2023-03-26T14:21:41.768Z,85.49
2023-03-26T14:24:08.140Z,85.10
2023-03-26T14:26:34.515Z,84.93
2023-03-26T14:29:00.900Z,84.84
2023-03-26T14:31:27.270Z,82.88
2023-03-26T14:33:53.690Z,83.16
2023-03-26T14:36:20.079Z,83.98
2023-03-26T14:38:46.461Z,83.59
2023-03-26T14:41:12.840Z,84.08
2023-03-26T14:43:39.223Z,82.98
2023-03-26T14:46:05.597Z,79.24
2023-03-26T14:48:32.027Z,83.04
2023-03-26T14:50:58.514Z,81.90
2023-03-26T14:53:24.969Z,80.57
2023-03-26T14:55:51.363Z,81.67
2023-03-26T14:58:17.721Z,79.68
2023-03-26T15:00:44.263Z,80.74
2023-03-26T15:03:10.750Z,79.42
2023-03-26T15:05:37.155Z,80.10
2023-03-26T15:08:03.770Z,80.44
2023-03-26T15:10:30.123Z,77.88
2023-03-26T15:12:56.489Z,81.29
2023-03-26T15:15:22.989Z,78.06
2023-03-26T15:17:49.447Z,76.58
2023-03-26T15:20:15.833Z,76.91
2023-03-26T15:22:42.387Z,74.64
2023-03-26T15:25:08.827Z,75.59
2023-03-26T15:27:35.273Z,74.13
2023-03-26T15:30:01.632Z,72.80
2023-03-26T15:32:27.959Z,73.51
2023-03-26T15:34:54.298Z,72.50
2023-03-26T15:37:20.854Z,74.74
2023-03-26T15:39:59.588Z,73.45
2023-03-26T15:42:26.464Z,73.20
2023-03-26T15:44:54.012Z,70.38
2023-03-26T15:47:20.871Z,73.57
2023-03-26T15:49:47.233Z,71.13
2023-03-26T15:52:13.549Z,69.79
2023-03-26T15:54:39.913Z,70.31
2023-03-26T15:57:06.377Z,70.67
2023-03-26T15:59:32.797Z,70.20
2023-03-26T16:01:59.149Z,71.38
2023-03-26T16:04:25.535Z,69.27
2023-03-26T16:06:52.127Z,72.02
2023-03-26T16:09:18.484Z,71.61
2023-03-26T16:11:44.915Z,67.75
2023-03-26T16:14:11.420Z,69.66
2023-03-26T16:16:37.784Z,71.31
2023-03-26T16:19:04.129Z,71.29
2023-03-26T16:21:31.748Z,69.11
2023-03-26T16:23:58.577Z,67.28
2023-03-26T16:26:25.047Z,69.32
2023-03-26T16:28:51.398Z,68.71
2023-03-26T16:31:37.356Z,68.65
2023-03-26T16:34:04.264Z,68.09
2023-03-26T16:36:30.702Z,68.50
2023-03-26T16:38:57.126Z,65.19
2023-03-26T16:41:23.476Z,66.27
2023-03-26T16:43:49.852Z,65.55
2023-03-26T16:46:16.243Z,64.84
2023-03-26T16:48:42.906Z,63.92
2023-03-26T16:51:09.290Z,63.21
2023-03-26T16:53:35.680Z,62.46
2023-03-26T16:56:02.019Z,62.97
2023-03-26T16:58:28.387Z,60.90
2023-03-26T17:00:54.987Z,64.86
2023-03-26T17:03:21.585Z,63.94
2023-03-26T17:05:47.951Z,63.10
2023-03-26T17:08:14.344Z,61.97
2023-03-26T17:10:40.691Z,63.95
2023-03-26T17:13:07.032Z,59.29
2023-03-26T17:15:33.414Z,62.00
2023-03-26T17:17:59.891Z,61.35
2023-03-26T17:20:26.328Z,63.52
2023-03-26T17:22:52.703Z,61.92
2023-03-26T17:25:19.040Z,63.18
2023-03-26T17:27:45.409Z,64.42
2023-03-26T17:30:11.876Z,66.51
2023-03-26T17:32:38.336Z,63.45
2023-03-26T17:35:08.060Z,65.93
2023-03-26T17:37:34.404Z,66.19
2023-03-26T17:40:00.787Z,66.43
2023-03-26T17:42:27.190Z,67.85
2023-03-26T17:44:53.596Z,65.80
2023-03-26T17:47:19.992Z,67.55
2023-03-26T17:49:46.317Z,66.48
2023-03-26T17:52:12.708Z,65.63
2023-03-26T17:54:39.057Z,66.12
2023-03-26T17:57:05.456Z,63.65
2023-03-26T17:59:31.936Z,64.43
2023-03-26T18:01:58.386Z,65.49
2023-03-26T18:04:24.746Z,65.26
2023-03-26T18:06:51.121Z,63.32
2023-03-26T18:09:17.470Z,64.23
2023-03-26T18:11:43.810Z,62.35
2023-03-26T18:14:10.198Z,61.69
2023-03-26T18:16:36.729Z,62.23
2023-03-26T18:19:03.112Z,64.26
2023-03-26T18:21:29.443Z,67.52
2023-03-26T18:24:00.425Z,68.38
2023-03-26T18:26:27.034Z,69.41
2023-03-26T18:28:53.424Z,70.01
2023-03-26T18:31:19.859Z,68.00
2023-03-26T18:33:46.290Z,67.81
2023-03-26T18:36:12.670Z,70.26
2023-03-26T18:38:40.602Z,69.52
2023-03-26T18:41:08.230Z,67.93
2023-03-26T18:43:35.583Z,68.36
2023-03-26T18:46:10.272Z,69.17
2023-03-26T18:48:36.629Z,70.05
2023-03-26T18:51:05.212Z,70.32
2023-03-26T18:53:32.264Z,69.38
2023-03-26T18:55:58.601Z,69.74
2023-03-26T18:58:24.971Z,69.82
2023-03-26T19:00:51.373Z,70.29
2023-03-26T19:03:17.828Z,69.50
2023-03-26T19:05:44.235Z,69.46
2023-03-26T19:08:10.610Z,69.72
2023-03-26T19:10:36.950Z,70.45
2023-03-26T19:13:03.372Z,69.14
2023-03-26T19:15:29.713Z,70.13
2023-03-26T19:17:56.128Z,71.54
2023-03-26T19:20:22.654Z,69.70
2023-03-26T19:22:49.047Z,69.61
2023-03-26T19:25:15.418Z,71.24
2023-03-26T19:27:41.838Z,69.24
2023-03-26T19:30:08.198Z,70.46
2023-03-26T19:32:34.712Z,69.07
2023-03-26T19:35:01.205Z,68.15
2023-03-26T19:37:27.693Z,68.71
2023-03-26T19:39:54.075Z,69.90
2023-03-26T19:42:20.457Z,69.77
2023-03-26T19:44:46.803Z,68.94
2023-03-26T19:47:13.292Z,69.34
2023-03-26T19:49:39.705Z,69.20
2023-03-26T19:52:06.070Z,69.47
2023-03-26T19:54:32.413Z,67.47
2023-03-26T19:56:58.794Z,68.33
2023-03-26T19:59:25.175Z,68.96
2023-03-26T20:01:51.603Z,68.70
2023-03-26T20:04:17.993Z,66.58
2023-03-26T20:06:44.493Z,68.37
2023-03-26T20:09:10.909Z,67.39
2023-03-26T20:11:37.293Z,66.04
2023-03-26T20:14:03.627Z,65.58
2023-03-26T20:16:30.025Z,64.89
2023-03-26T20:18:56.386Z,65.75
2023-03-26T20:21:22.783Z,66.12
2023-03-26T20:23:49.169Z,65.99
2023-03-26T20:26:15.502Z,66.45
2023-03-26T20:28:47.635Z,66.31
2023-03-26T20:31:14.907Z,64.90
2023-03-26T20:33:41.358Z,65.65
2023-03-26T20:36:07.784Z,66.80
2023-03-26T20:38:39.569Z,66.34
2023-03-26T20:41:06.454Z,64.54
2023-03-26T20:43:32.819Z,65.42
2023-03-26T20:45:59.198Z,67.50
2023-03-26T20:48:25.616Z,66.87
2023-03-26T20:50:51.994Z,65.45
2023-03-26T20:53:18.395Z,65.23
2023-03-26T20:55:44.784Z,63.75
2023-03-26T20:58:11.188Z,63.11
2023-03-26T21:00:37.573Z,63.72
2023-03-26T21:03:03.982Z,63.53
2023-03-26T21:05:30.367Z,64.43
2023-03-26T21:07:56.749Z,62.90
2023-03-26T21:10:23.136Z,64.13
2023-03-26T21:12:49.529Z,63.37
2023-03-26T21:15:22.836Z,63.54
2023-03-26T21:17:50.057Z,62.94
2023-03-26T21:20:16.501Z,63.64
2023-03-26T21:22:42.925Z,63.47
2023-03-26T21:25:09.313Z,62.90
2023-03-26T21:27:35.657Z,63.13
2023-03-26T21:30:02.058Z,63.31
2023-03-26T21:32:28.506Z,61.09
2023-03-26T21:34:59.134Z,63.37
2023-03-26T21:37:25.858Z,62.88
2023-03-26T21:39:52.281Z,63.47
2023-03-26T21:42:18.686Z,62.83
2023-03-26T21:44:45.079Z,63.78
2023-03-26T21:47:11.426Z,63.67
2023-03-26T21:49:37.768Z,63.40
2023-03-26T21:52:04.101Z,62.64
2023-03-26T21:54:30.436Z,63.64
2023-03-26T21:56:56.845Z,64.15
2023-03-26T21:59:23.204Z,65.29
2023-03-26T22:01:49.618Z,66.40
2023-03-26T22:04:15.996Z,65.15
2023-03-26T22:06:42.374Z,65.79
2023-03-26T22:09:08.767Z,67.38
2023-03-26T22:11:35.160Z,67.00
2023-03-26T22:14:01.570Z,67.04
2023-03-26T22:16:27.986Z,67.39
2023-03-26T22:18:54.385Z,67.11
2023-03-26T22:21:20.782Z,66.99
2023-03-26T22:23:47.151Z,66.71
2023-03-26T22:26:13.487Z,65.17
2023-03-26T22:28:39.858Z,64.80
2023-03-26T22:31:06.268Z,64.78
2023-03-26T22:33:32.668Z,64.60
2023-03-26T22:35:59.067Z,65.14
2023-03-26T22:38:25.415Z,65.23
2023-03-26T22:40:51.746Z,65.71
2023-03-26T22:43:18.084Z,67.16
2023-03-26T22:45:44.457Z,65.81
2023-03-26T22:48:10.872Z,66.57
2023-03-26T22:50:37.326Z,66.41
2023-03-26T22:53:03.714Z,66.25
2023-03-26T22:55:30.204Z,66.74
2023-03-26T22:57:56.649Z,66.36
2023-03-26T23:00:23.072Z,64.92
2023-03-26T23:02:49.645Z,63.71
2023-03-26T23:05:16.054Z,64.63
2023-03-26T23:07:42.498Z,65.15
2023-03-26T23:10:08.936Z,65.84
2023-03-26T23:12:35.314Z,66.11
2023-03-26T23:15:01.716Z,67.16
2023-03-26T23:17:28.185Z,67.25
2023-03-26T23:19:54.596Z,67.90
2023-03-26T23:22:20.983Z,67.65
2023-03-26T23:24:47.321Z,67.78
2023-03-26T23:27:13.682Z,67.09
2023-03-26T23:29:40.039Z,67.39
2023-03-26T23:32:23.453Z,66.86
2023-03-26T23:34:52.095Z,66.27
2023-03-26T23:37:18.917Z,66.32
2023-03-26T23:39:45.262Z,66.14
2023-03-26T23:42:11.599Z,66.92
2023-03-26T23:44:37.969Z,66.01
2023-03-26T23:47:04.347Z,65.71
2023-03-26T23:49:30.729Z,66.42
2023-03-26T23:51:57.090Z,65.25
2023-03-26T23:54:23.426Z,65.40
2023-03-26T23:56:49.833Z,65.23
2023-03-26T23:59:16.203Z,65.42
